DAOI

Ech Cheliff Airport

Algeria
METAR DAOI 232200Z 01006KT CAVOK 06/03 Q1005
Observed Flight Rules
Feb-23 @ 22:00 UTC (35 minutes ago) Visual Flight Rules
Wind Visibility Clouds
10° at 6 knots 10,000+ meters
  • Clear skies
Temperatures Readings
Current 6°C / 43°F
Dewpoint 3°C / 37°F
Humidity 81%
Altimeter 29.68" Hg
Pressure 1005 hPa
Elevation 143
METAR DAOI 232200Z 01006KT CAVOK 06/03 Q1005
Observed Flight Rules
Feb-23 @ 22:00 UTC
(35 minutes ago)
VFR
Wind Visibility
10° at 6 knots 10,000+ meters
Clouds
  • Clear skies
Temperature Dewpoint
6°C / 43°F 3°C / 37°F
Humidity Altimeter Pressure
81% 29.68" Hg 1005 hPa